sensor_id;sensor_type;location;lat;lon;timestamp;P1;durP1;ratioP1;P2;durP2;ratioP2
22111;SDS011;11222;50.872;4.312;2023-07-20T00:01:47;7.90;;;4.28;;
22111;SDS011;11222;50.872;4.312;2023-07-20T00:04:13;7.05;;;4.00;;
22111;SDS011;11222;50.872;4.312;2023-07-20T00:06:39;7.90;;;4.43;;
22111;SDS011;11222;50.872;4.312;2023-07-20T00:09:08;9.43;;;3.90;;
22111;SDS011;11222;50.872;4.312;2023-07-20T00:11:35;10.07;;;4.30;;
22111;SDS011;11222;50.872;4.312;2023-07-20T00:14:05;8.05;;;4.25;;
22111;SDS011;11222;50.872;4.312;2023-07-20T00:16:31;10.57;;;4.57;;
22111;SDS011;11222;50.872;4.312;2023-07-20T00:18:57;11.50;;;4.50;;
22111;SDS011;11222;50.872;4.312;2023-07-20T00:21:23;6.75;;;4.00;;
22111;SDS011;11222;50.872;4.312;2023-07-20T00:23:49;7.05;;;4.30;;
22111;SDS011;11222;50.872;4.312;2023-07-20T00:26:14;9.95;;;4.10;;
22111;SDS011;11222;50.872;4.312;2023-07-20T00:28:40;6.90;;;3.78;;
22111;SDS011;11222;50.872;4.312;2023-07-20T00:31:06;8.77;;;4.35;;
22111;SDS011;11222;50.872;4.312;2023-07-20T00:33:31;8.10;;;3.83;;
22111;SDS011;11222;50.872;4.312;2023-07-20T00:35:57;8.60;;;4.32;;
22111;SDS011;11222;50.872;4.312;2023-07-20T00:38:23;6.13;;;4.30;;
22111;SDS011;11222;50.872;4.312;2023-07-20T00:40:48;9.02;;;3.97;;
22111;SDS011;11222;50.872;4.312;2023-07-20T00:43:14;11.88;;;4.60;;
22111;SDS011;11222;50.872;4.312;2023-07-20T00:45:40;8.05;;;4.40;;
22111;SDS011;11222;50.872;4.312;2023-07-20T00:48:06;10.73;;;4.43;;
22111;SDS011;11222;50.872;4.312;2023-07-20T00:50:33;11.25;;;4.43;;
22111;SDS011;11222;50.872;4.312;2023-07-20T00:52:59;8.75;;;4.97;;
22111;SDS011;11222;50.872;4.312;2023-07-20T00:55:30;8.75;;;4.63;;
22111;SDS011;11222;50.872;4.312;2023-07-20T00:57:55;9.23;;;4.90;;
22111;SDS011;11222;50.872;4.312;2023-07-20T01:00:21;10.30;;;4.95;;
22111;SDS011;11222;50.872;4.312;2023-07-20T01:02:47;11.02;;;4.60;;
22111;SDS011;11222;50.872;4.312;2023-07-20T01:05:13;5.22;;;4.18;;
22111;SDS011;11222;50.872;4.312;2023-07-20T01:13:04;6.95;;;4.32;;
22111;SDS011;11222;50.872;4.312;2023-07-20T01:15:35;9.20;;;4.20;;
22111;SDS011;11222;50.872;4.312;2023-07-20T01:18:01;6.97;;;4.25;;
22111;SDS011;11222;50.872;4.312;2023-07-20T01:20:29;9.20;;;4.22;;
22111;SDS011;11222;50.872;4.312;2023-07-20T01:33:46;12.00;;;5.47;;
22111;SDS011;11222;50.872;4.312;2023-07-20T01:36:13;9.95;;;5.75;;
22111;SDS011;11222;50.872;4.312;2023-07-20T01:38:41;9.15;;;5.53;;
22111;SDS011;11222;50.872;4.312;2023-07-20T01:41:07;11.80;;;5.55;;
22111;SDS011;11222;50.872;4.312;2023-07-20T01:43:34;10.82;;;5.47;;
22111;SDS011;11222;50.872;4.312;2023-07-20T01:45:59;8.77;;;4.82;;
22111;SDS011;11222;50.872;4.312;2023-07-20T01:48:25;11.50;;;5.32;;
22111;SDS011;11222;50.872;4.312;2023-07-20T01:50:51;8.77;;;5.43;;
22111;SDS011;11222;50.872;4.312;2023-07-20T01:53:17;12.07;;;6.25;;
22111;SDS011;11222;50.872;4.312;2023-07-20T01:55:42;11.55;;;5.85;;
22111;SDS011;11222;50.872;4.312;2023-07-20T01:58:08;15.32;;;5.50;;
22111;SDS011;11222;50.872;4.312;2023-07-20T02:00:34;11.50;;;5.55;;
22111;SDS011;11222;50.872;4.312;2023-07-20T02:03:01;11.95;;;6.15;;
22111;SDS011;11222;50.872;4.312;2023-07-20T02:05:27;10.52;;;5.70;;
22111;SDS011;11222;50.872;4.312;2023-07-20T02:07:53;11.77;;;5.90;;
22111;SDS011;11222;50.872;4.312;2023-07-20T02:10:18;12.93;;;5.90;;
22111;SDS011;11222;50.872;4.312;2023-07-20T02:12:44;11.70;;;6.43;;
22111;SDS011;11222;50.872;4.312;2023-07-20T02:15:10;11.88;;;6.25;;
22111;SDS011;11222;50.872;4.312;2023-07-20T02:17:35;11.85;;;6.22;;
22111;SDS011;11222;50.872;4.312;2023-07-20T02:20:02;11.98;;;6.38;;
22111;SDS011;11222;50.872;4.312;2023-07-20T02:22:28;14.88;;;6.75;;
22111;SDS011;11222;50.872;4.312;2023-07-20T02:24:53;13.30;;;6.72;;
22111;SDS011;11222;50.872;4.312;2023-07-20T02:27:19;11.07;;;6.60;;
22111;SDS011;11222;50.872;4.312;2023-07-20T02:29:45;11.50;;;6.93;;
22111;SDS011;11222;50.872;4.312;2023-07-20T02:32:10;12.65;;;6.85;;
22111;SDS011;11222;50.872;4.312;2023-07-20T02:34:36;12.77;;;6.72;;
22111;SDS011;11222;50.872;4.312;2023-07-20T02:37:01;12.82;;;7.50;;
22111;SDS011;11222;50.872;4.312;2023-07-20T02:39:27;14.68;;;7.15;;
22111;SDS011;11222;50.872;4.312;2023-07-20T02:41:53;14.30;;;8.05;;
22111;SDS011;11222;50.872;4.312;2023-07-20T02:44:19;18.05;;;7.40;;
22111;SDS011;11222;50.872;4.312;2023-07-20T02:46:45;15.00;;;8.77;;
22111;SDS011;11222;50.872;4.312;2023-07-20T02:49:11;14.02;;;8.00;;
22111;SDS011;11222;50.872;4.312;2023-07-20T02:51:36;13.75;;;8.32;;
22111;SDS011;11222;50.872;4.312;2023-07-20T02:54:02;16.65;;;8.75;;
22111;SDS011;11222;50.872;4.312;2023-07-20T02:56:28;13.07;;;7.65;;
22111;SDS011;11222;50.872;4.312;2023-07-20T02:58:54;15.25;;;8.13;;
22111;SDS011;11222;50.872;4.312;2023-07-20T03:01:20;17.70;;;8.40;;
22111;SDS011;11222;50.872;4.312;2023-07-20T03:03:45;18.70;;;8.52;;
22111;SDS011;11222;50.872;4.312;2023-07-20T03:06:14;19.40;;;9.57;;
22111;SDS011;11222;50.872;4.312;2023-07-20T03:08:41;18.17;;;10.10;;
22111;SDS011;11222;50.872;4.312;2023-07-20T03:11:12;17.45;;;10.07;;
22111;SDS011;11222;50.872;4.312;2023-07-20T03:13:40;21.83;;;10.77;;
22111;SDS011;11222;50.872;4.312;2023-07-20T03:16:06;20.08;;;10.85;;
22111;SDS011;11222;50.872;4.312;2023-07-20T03:18:36;18.95;;;10.60;;
22111;SDS011;11222;50.872;4.312;2023-07-20T03:21:03;21.40;;;10.52;;
22111;SDS011;11222;50.872;4.312;2023-07-20T03:23:29;21.80;;;11.13;;
22111;SDS011;11222;50.872;4.312;2023-07-20T03:25:54;21.17;;;11.35;;
22111;SDS011;11222;50.872;4.312;2023-07-20T03:28:20;17.80;;;11.05;;
22111;SDS011;11222;50.872;4.312;2023-07-20T03:30:45;21.48;;;11.25;;
22111;SDS011;11222;50.872;4.312;2023-07-20T03:33:11;21.15;;;12.15;;
22111;SDS011;11222;50.872;4.312;2023-07-20T03:35:37;27.15;;;11.00;;
22111;SDS011;11222;50.872;4.312;2023-07-20T03:38:03;20.20;;;11.23;;
22111;SDS011;11222;50.872;4.312;2023-07-20T03:40:29;19.55;;;11.43;;
22111;SDS011;11222;50.872;4.312;2023-07-20T03:42:55;23.25;;;11.90;;
22111;SDS011;11222;50.872;4.312;2023-07-20T03:45:20;16.50;;;11.43;;
22111;SDS011;11222;50.872;4.312;2023-07-20T03:47:49;20.67;;;11.43;;
22111;SDS011;11222;50.872;4.312;2023-07-20T03:50:14;20.65;;;11.80;;
22111;SDS011;11222;50.872;4.312;2023-07-20T03:52:40;24.23;;;11.88;;
22111;SDS011;11222;50.872;4.312;2023-07-20T03:55:06;23.98;;;12.15;;
22111;SDS011;11222;50.872;4.312;2023-07-20T03:57:32;24.85;;;11.25;;
22111;SDS011;11222;50.872;4.312;2023-07-20T03:59:58;19.13;;;11.90;;
22111;SDS011;11222;50.872;4.312;2023-07-20T04:02:24;19.98;;;11.55;;
22111;SDS011;11222;50.872;4.312;2023-07-20T04:04:50;18.73;;;12.00;;
22111;SDS011;11222;50.872;4.312;2023-07-20T04:07:16;20.20;;;11.50;;
22111;SDS011;11222;50.872;4.312;2023-07-20T04:09:42;21.90;;;12.13;;
22111;SDS011;11222;50.872;4.312;2023-07-20T04:12:07;23.73;;;12.48;;
22111;SDS011;11222;50.872;4.312;2023-07-20T04:14:33;20.23;;;12.60;;
22111;SDS011;11222;50.872;4.312;2023-07-20T04:16:58;18.65;;;12.70;;
22111;SDS011;11222;50.872;4.312;2023-07-20T04:19:25;24.08;;;12.10;;
22111;SDS011;11222;50.872;4.312;2023-07-20T04:21:51;19.55;;;12.43;;
22111;SDS011;11222;50.872;4.312;2023-07-20T04:24:16;21.25;;;12.32;;
22111;SDS011;11222;50.872;4.312;2023-07-20T04:26:42;22.10;;;11.93;;
22111;SDS011;11222;50.872;4.312;2023-07-20T04:29:08;22.73;;;12.75;;
22111;SDS011;11222;50.872;4.312;2023-07-20T04:31:34;23.17;;;13.55;;
22111;SDS011;11222;50.872;4.312;2023-07-20T04:34:00;22.05;;;12.75;;
22111;SDS011;11222;50.872;4.312;2023-07-20T04:36:26;21.15;;;12.82;;
22111;SDS011;11222;50.872;4.312;2023-07-20T04:38:51;21.45;;;12.77;;
22111;SDS011;11222;50.872;4.312;2023-07-20T04:41:17;21.60;;;13.27;;
22111;SDS011;11222;50.872;4.312;2023-07-20T04:43:43;18.50;;;12.90;;
22111;SDS011;11222;50.872;4.312;2023-07-20T04:46:09;21.45;;;12.68;;
22111;SDS011;11222;50.872;4.312;2023-07-20T04:48:35;20.10;;;13.65;;
22111;SDS011;11222;50.872;4.312;2023-07-20T04:51:02;24.75;;;13.13;;
22111;SDS011;11222;50.872;4.312;2023-07-20T04:53:28;28.20;;;13.60;;
22111;SDS011;11222;50.872;4.312;2023-07-20T04:55:53;21.73;;;12.63;;
22111;SDS011;11222;50.872;4.312;2023-07-20T04:58:20;25.30;;;12.90;;
22111;SDS011;11222;50.872;4.312;2023-07-20T05:00:51;24.40;;;13.00;;
22111;SDS011;11222;50.872;4.312;2023-07-20T05:03:17;22.90;;;13.38;;
22111;SDS011;11222;50.872;4.312;2023-07-20T05:05:43;23.42;;;13.00;;
22111;SDS011;11222;50.872;4.312;2023-07-20T05:08:08;22.92;;;13.18;;
22111;SDS011;11222;50.872;4.312;2023-07-20T05:10:34;21.38;;;12.98;;
22111;SDS011;11222;50.872;4.312;2023-07-20T05:13:00;23.27;;;13.75;;
22111;SDS011;11222;50.872;4.312;2023-07-20T05:15:26;17.20;;;12.55;;
22111;SDS011;11222;50.872;4.312;2023-07-20T05:17:51;18.58;;;12.38;;
22111;SDS011;11222;50.872;4.312;2023-07-20T05:20:17;19.25;;;12.52;;
22111;SDS011;11222;50.872;4.312;2023-07-20T05:22:43;17.35;;;12.63;;
22111;SDS011;11222;50.872;4.312;2023-07-20T05:25:10;22.75;;;13.52;;
22111;SDS011;11222;50.872;4.312;2023-07-20T05:27:36;22.80;;;12.85;;
22111;SDS011;11222;50.872;4.312;2023-07-20T05:30:03;22.73;;;13.40;;
22111;SDS011;11222;50.872;4.312;2023-07-20T05:32:30;21.83;;;13.35;;
22111;SDS011;11222;50.872;4.312;2023-07-20T05:34:56;21.05;;;13.80;;
22111;SDS011;11222;50.872;4.312;2023-07-20T05:37:21;23.27;;;13.02;;
22111;SDS011;11222;50.872;4.312;2023-07-20T05:39:47;20.45;;;12.65;;
22111;SDS011;11222;50.872;4.312;2023-07-20T05:42:13;21.50;;;13.40;;
22111;SDS011;11222;50.872;4.312;2023-07-20T05:44:39;21.08;;;13.57;;
22111;SDS011;11222;50.872;4.312;2023-07-20T05:47:05;22.08;;;13.23;;
22111;SDS011;11222;50.872;4.312;2023-07-20T05:49:31;23.27;;;13.80;;
22111;SDS011;11222;50.872;4.312;2023-07-20T05:51:57;20.80;;;13.18;;
22111;SDS011;11222;50.872;4.312;2023-07-20T05:54:26;22.23;;;14.07;;
22111;SDS011;11222;50.872;4.312;2023-07-20T05:56:52;20.65;;;14.10;;
22111;SDS011;11222;50.872;4.312;2023-07-20T05:59:18;25.10;;;13.55;;
22111;SDS011;11222;50.872;4.312;2023-07-20T06:01:48;21.33;;;14.18;;
22111;SDS011;11222;50.872;4.312;2023-07-20T06:04:14;20.85;;;12.57;;
22111;SDS011;11222;50.872;4.312;2023-07-20T06:06:40;27.13;;;14.27;;
22111;SDS011;11222;50.872;4.312;2023-07-20T06:09:07;23.38;;;14.02;;
22111;SDS011;11222;50.872;4.312;2023-07-20T06:11:37;23.52;;;13.90;;
22111;SDS011;11222;50.872;4.312;2023-07-20T06:14:03;24.17;;;13.73;;
22111;SDS011;11222;50.872;4.312;2023-07-20T06:16:29;19.73;;;13.32;;
22111;SDS011;11222;50.872;4.312;2023-07-20T06:18:55;23.30;;;13.20;;
22111;SDS011;11222;50.872;4.312;2023-07-20T06:21:20;25.63;;;13.38;;
22111;SDS011;11222;50.872;4.312;2023-07-20T06:23:46;17.20;;;12.88;;
22111;SDS011;11222;50.872;4.312;2023-07-20T06:26:12;20.90;;;12.88;;
22111;SDS011;11222;50.872;4.312;2023-07-20T06:28:37;15.48;;;10.90;;
22111;SDS011;11222;50.872;4.312;2023-07-20T06:31:03;18.52;;;10.90;;
22111;SDS011;11222;50.872;4.312;2023-07-20T06:33:29;24.95;;;12.05;;
22111;SDS011;11222;50.872;4.312;2023-07-20T06:35:55;19.25;;;11.95;;
22111;SDS011;11222;50.872;4.312;2023-07-20T06:38:22;15.60;;;10.68;;
22111;SDS011;11222;50.872;4.312;2023-07-20T06:40:48;12.15;;;9.10;;
22111;SDS011;11222;50.872;4.312;2023-07-20T06:43:14;16.33;;;10.10;;
22111;SDS011;11222;50.872;4.312;2023-07-20T06:45:40;14.65;;;9.93;;
22111;SDS011;11222;50.872;4.312;2023-07-20T06:48:07;12.55;;;9.20;;
22111;SDS011;11222;50.872;4.312;2023-07-20T06:50:32;9.98;;;8.75;;
22111;SDS011;11222;50.872;4.312;2023-07-20T06:52:58;12.30;;;8.20;;
22111;SDS011;11222;50.872;4.312;2023-07-20T06:55:25;8.95;;;7.95;;
22111;SDS011;11222;50.872;4.312;2023-07-20T06:57:51;11.57;;;7.25;;
22111;SDS011;11222;50.872;4.312;2023-07-20T07:00:17;10.30;;;6.60;;
22111;SDS011;11222;50.872;4.312;2023-07-20T07:02:43;10.13;;;6.93;;
22111;SDS011;11222;50.872;4.312;2023-07-20T07:05:09;11.65;;;6.80;;
22111;SDS011;11222;50.872;4.312;2023-07-20T07:07:34;8.80;;;6.50;;
22111;SDS011;11222;50.872;4.312;2023-07-20T07:10:00;7.78;;;5.80;;
22111;SDS011;11222;50.872;4.312;2023-07-20T07:12:29;7.10;;;5.93;;
22111;SDS011;11222;50.872;4.312;2023-07-20T07:14:54;7.40;;;4.88;;
22111;SDS011;11222;50.872;4.312;2023-07-20T07:17:20;7.18;;;5.32;;
22111;SDS011;11222;50.872;4.312;2023-07-20T07:19:46;5.82;;;4.93;;
22111;SDS011;11222;50.872;4.312;2023-07-20T07:22:11;5.10;;;3.40;;
22111;SDS011;11222;50.872;4.312;2023-07-20T07:24:37;3.85;;;3.40;;
22111;SDS011;11222;50.872;4.312;2023-07-20T07:27:03;6.32;;;3.50;;
22111;SDS011;11222;50.872;4.312;2023-07-20T07:29:29;4.85;;;3.60;;
22111;SDS011;11222;50.872;4.312;2023-07-20T07:31:54;3.63;;;3.28;;
22111;SDS011;11222;50.872;4.312;2023-07-20T07:34:20;5.05;;;3.30;;
22111;SDS011;11222;50.872;4.312;2023-07-20T07:36:46;4.57;;;3.90;;
22111;SDS011;11222;50.872;4.312;2023-07-20T07:39:12;6.15;;;4.22;;
22111;SDS011;11222;50.872;4.312;2023-07-20T07:41:38;4.32;;;3.58;;
22111;SDS011;11222;50.872;4.312;2023-07-20T07:44:03;8.10;;;3.80;;
22111;SDS011;11222;50.872;4.312;2023-07-20T07:46:30;5.00;;;3.88;;
22111;SDS011;11222;50.872;4.312;2023-07-20T07:48:55;4.22;;;3.70;;
22111;SDS011;11222;50.872;4.312;2023-07-20T07:51:21;5.85;;;4.00;;
22111;SDS011;11222;50.872;4.312;2023-07-20T07:53:47;3.88;;;3.58;;
22111;SDS011;11222;50.872;4.312;2023-07-20T07:56:14;3.63;;;3.28;;
22111;SDS011;11222;50.872;4.312;2023-07-20T07:58:40;4.10;;;3.50;;
22111;SDS011;11222;50.872;4.312;2023-07-20T08:01:05;3.20;;;2.90;;
22111;SDS011;11222;50.872;4.312;2023-07-20T08:03:31;3.53;;;3.22;;
22111;SDS011;11222;50.872;4.312;2023-07-20T08:05:57;3.65;;;2.95;;
22111;SDS011;11222;50.872;4.312;2023-07-20T08:08:24;2.90;;;2.70;;
22111;SDS011;11222;50.872;4.312;2023-07-20T08:10:52;3.20;;;2.90;;
22111;SDS011;11222;50.872;4.312;2023-07-20T08:13:20;3.60;;;3.30;;
22111;SDS011;11222;50.872;4.312;2023-07-20T08:15:48;3.47;;;3.13;;
22111;SDS011;11222;50.872;4.312;2023-07-20T08:18:16;3.22;;;2.97;;
22111;SDS011;11222;50.872;4.312;2023-07-20T08:20:45;7.45;;;3.00;;
22111;SDS011;11222;50.872;4.312;2023-07-20T08:23:11;3.20;;;3.00;;
22111;SDS011;11222;50.872;4.312;2023-07-20T08:25:38;3.65;;;3.35;;
22111;SDS011;11222;50.872;4.312;2023-07-20T08:28:06;4.35;;;3.95;;
22111;SDS011;11222;50.872;4.312;2023-07-20T08:30:42;3.67;;;3.38;;
22111;SDS011;11222;50.872;4.312;2023-07-20T08:33:15;3.92;;;3.50;;
22111;SDS011;11222;50.872;4.312;2023-07-20T08:35:44;3.75;;;3.45;;
22111;SDS011;11222;50.872;4.312;2023-07-20T08:38:10;3.70;;;3.50;;
22111;SDS011;11222;50.872;4.312;2023-07-20T08:40:43;3.97;;;3.67;;
22111;SDS011;11222;50.872;4.312;2023-07-20T08:43:10;3.53;;;3.20;;
22111;SDS011;11222;50.872;4.312;2023-07-20T08:45:38;4.65;;;3.30;;
22111;SDS011;11222;50.872;4.312;2023-07-20T08:48:05;5.75;;;3.45;;
22111;SDS011;11222;50.872;4.312;2023-07-20T08:50:32;4.15;;;3.75;;
22111;SDS011;11222;50.872;4.312;2023-07-20T08:52:58;5.80;;;3.15;;
22111;SDS011;11222;50.872;4.312;2023-07-20T08:55:28;3.05;;;2.85;;
22111;SDS011;11222;50.872;4.312;2023-07-20T08:57:55;3.92;;;2.90;;
22111;SDS011;11222;50.872;4.312;2023-07-20T09:00:22;3.88;;;3.30;;
22111;SDS011;11222;50.872;4.312;2023-07-20T09:02:52;4.00;;;2.83;;
22111;SDS011;11222;50.872;4.312;2023-07-20T09:05:22;3.10;;;2.90;;
22111;SDS011;11222;50.872;4.312;2023-07-20T09:07:49;5.18;;;3.08;;
22111;SDS011;11222;50.872;4.312;2023-07-20T09:10:16;4.13;;;3.05;;
22111;SDS011;11222;50.872;4.312;2023-07-20T09:12:42;3.63;;;3.20;;
22111;SDS011;11222;50.872;4.312;2023-07-20T09:15:09;5.05;;;3.10;;
22111;SDS011;11222;50.872;4.312;2023-07-20T09:17:36;4.72;;;3.10;;
22111;SDS011;11222;50.872;4.312;2023-07-20T09:20:06;3.10;;;2.90;;
22111;SDS011;11222;50.872;4.312;2023-07-20T09:22:35;5.25;;;3.03;;
22111;SDS011;11222;50.872;4.312;2023-07-20T09:25:15;6.88;;;4.43;;
22111;SDS011;11222;50.872;4.312;2023-07-20T09:27:43;3.17;;;2.95;;
22111;SDS011;11222;50.872;4.312;2023-07-20T09:30:10;5.03;;;2.75;;
22111;SDS011;11222;50.872;4.312;2023-07-20T09:32:45;2.80;;;2.60;;
22111;SDS011;11222;50.872;4.312;2023-07-20T09:35:13;3.10;;;2.80;;
22111;SDS011;11222;50.872;4.312;2023-07-20T09:37:39;2.88;;;2.65;;
22111;SDS011;11222;50.872;4.312;2023-07-20T09:40:08;3.28;;;2.97;;
22111;SDS011;11222;50.872;4.312;2023-07-20T09:42:34;3.00;;;2.80;;
22111;SDS011;11222;50.872;4.312;2023-07-20T09:45:01;3.13;;;2.83;;
22111;SDS011;11222;50.872;4.312;2023-07-20T09:47:27;3.20;;;3.00;;
22111;SDS011;11222;50.872;4.312;2023-07-20T09:50:00;4.10;;;3.70;;
22111;SDS011;11222;50.872;4.312;2023-07-20T09:52:26;3.65;;;3.35;;
22111;SDS011;11222;50.872;4.312;2023-07-20T09:54:52;3.85;;;3.50;;
22111;SDS011;11222;50.872;4.312;2023-07-20T09:57:19;4.10;;;3.70;;
22111;SDS011;11222;50.872;4.312;2023-07-20T09:59:46;3.90;;;3.50;;
22111;SDS011;11222;50.872;4.312;2023-07-20T10:02:23;3.70;;;3.40;;
22111;SDS011;11222;50.872;4.312;2023-07-20T10:04:55;3.50;;;3.20;;
22111;SDS011;11222;50.872;4.312;2023-07-20T10:07:23;5.97;;;5.47;;
22111;SDS011;11222;50.872;4.312;2023-07-20T10:09:53;4.00;;;2.80;;
22111;SDS011;11222;50.872;4.312;2023-07-20T10:12:24;4.75;;;3.28;;
22111;SDS011;11222;50.872;4.312;2023-07-20T10:14:54;3.67;;;2.90;;
22111;SDS011;11222;50.872;4.312;2023-07-20T10:17:33;3.22;;;3.03;;
22111;SDS011;11222;50.872;4.312;2023-07-20T10:20:02;4.90;;;3.10;;
22111;SDS011;11222;50.872;4.312;2023-07-20T10:22:30;3.10;;;2.75;;
22111;SDS011;11222;50.872;4.312;2023-07-20T10:25:00;5.57;;;3.30;;
22111;SDS011;11222;50.872;4.312;2023-07-20T10:27:26;3.25;;;3.05;;
22111;SDS011;11222;50.872;4.312;2023-07-20T10:29:53;3.42;;;3.13;;
22111;SDS011;11222;50.872;4.312;2023-07-20T10:32:20;3.30;;;3.10;;
22111;SDS011;11222;50.872;4.312;2023-07-20T10:34:50;3.33;;;3.00;;
22111;SDS011;11222;50.872;4.312;2023-07-20T10:40:31;3.13;;;2.92;;
22111;SDS011;11222;50.872;4.312;2023-07-20T10:43:00;3.50;;;3.20;;
22111;SDS011;11222;50.872;4.312;2023-07-20T10:48:14;3.15;;;2.95;;
22111;SDS011;11222;50.872;4.312;2023-07-20T10:53:39;3.72;;;3.28;;
22111;SDS011;11222;50.872;4.312;2023-07-20T10:56:06;4.70;;;3.70;;
22111;SDS011;11222;50.872;4.312;2023-07-20T10:58:44;4.50;;;3.50;;
22111;SDS011;11222;50.872;4.312;2023-07-20T11:01:12;4.25;;;3.95;;
22111;SDS011;11222;50.872;4.312;2023-07-20T11:03:39;4.05;;;3.75;;
22111;SDS011;11222;50.872;4.312;2023-07-20T11:08:50;4.13;;;3.83;;
22111;SDS011;11222;50.872;4.312;2023-07-20T11:11:21;4.10;;;3.70;;
22111;SDS011;11222;50.872;4.312;2023-07-20T11:16:35;3.40;;;3.20;;
22111;SDS011;11222;50.872;4.312;2023-07-20T11:19:03;3.90;;;3.60;;
22111;SDS011;11222;50.872;4.312;2023-07-20T11:21:35;3.90;;;3.60;;
22111;SDS011;11222;50.872;4.312;2023-07-20T11:24:03;3.83;;;3.50;;
22111;SDS011;11222;50.872;4.312;2023-07-20T11:26:30;4.05;;;3.67;;
22111;SDS011;11222;50.872;4.312;2023-07-20T11:29:04;4.13;;;3.78;;
22111;SDS011;11222;50.872;4.312;2023-07-20T11:31:29;4.30;;;3.70;;
22111;SDS011;11222;50.872;4.312;2023-07-20T11:33:55;4.15;;;3.80;;
22111;SDS011;11222;50.872;4.312;2023-07-20T11:36:21;5.85;;;3.85;;
22111;SDS011;11222;50.872;4.312;2023-07-20T11:38:46;4.13;;;3.80;;
22111;SDS011;11222;50.872;4.312;2023-07-20T11:41:12;4.10;;;3.72;;
22111;SDS011;11222;50.872;4.312;2023-07-20T11:43:38;4.60;;;4.20;;
22111;SDS011;11222;50.872;4.312;2023-07-20T11:46:06;4.20;;;3.90;;
22111;SDS011;11222;50.872;4.312;2023-07-20T11:48:32;4.00;;;3.70;;
22111;SDS011;11222;50.872;4.312;2023-07-20T11:50:58;4.07;;;3.78;;
22111;SDS011;11222;50.872;4.312;2023-07-20T11:53:24;4.20;;;3.90;;
22111;SDS011;11222;50.872;4.312;2023-07-20T11:55:50;4.28;;;3.97;;
22111;SDS011;11222;50.872;4.312;2023-07-20T11:58:16;5.47;;;4.32;;
22111;SDS011;11222;50.872;4.312;2023-07-20T12:00:43;4.80;;;4.40;;
22111;SDS011;11222;50.872;4.312;2023-07-20T12:03:10;4.60;;;4.30;;
22111;SDS011;11222;50.872;4.312;2023-07-20T12:05:40;4.82;;;4.38;;
22111;SDS011;11222;50.872;4.312;2023-07-20T12:08:06;4.85;;;4.45;;
22111;SDS011;11222;50.872;4.312;2023-07-20T12:10:32;4.57;;;4.28;;
22111;SDS011;11222;50.872;4.312;2023-07-20T12:13:01;4.32;;;4.00;;
22111;SDS011;11222;50.872;4.312;2023-07-20T12:15:30;4.25;;;3.95;;
22111;SDS011;11222;50.872;4.312;2023-07-20T12:17:57;4.47;;;4.18;;
22111;SDS011;11222;50.872;4.312;2023-07-20T12:23:02;4.72;;;4.07;;
22111;SDS011;11222;50.872;4.312;2023-07-20T12:28:14;4.20;;;3.90;;
22111;SDS011;11222;50.872;4.312;2023-07-20T12:30:41;4.30;;;4.00;;
22111;SDS011;11222;50.872;4.312;2023-07-20T12:33:07;4.50;;;4.10;;
22111;SDS011;11222;50.872;4.312;2023-07-20T12:35:33;4.80;;;4.30;;
22111;SDS011;11222;50.872;4.312;2023-07-20T12:37:59;4.40;;;4.07;;
22111;SDS011;11222;50.872;4.312;2023-07-20T12:40:25;4.90;;;4.50;;
22111;SDS011;11222;50.872;4.312;2023-07-20T12:42:51;5.20;;;4.70;;
22111;SDS011;11222;50.872;4.312;2023-07-20T12:45:17;4.40;;;4.00;;
22111;SDS011;11222;50.872;4.312;2023-07-20T12:47:43;5.55;;;4.82;;
22111;SDS011;11222;50.872;4.312;2023-07-20T12:50:11;4.75;;;4.10;;
22111;SDS011;11222;50.872;4.312;2023-07-20T12:52:38;4.45;;;4.13;;
22111;SDS011;11222;50.872;4.312;2023-07-20T12:55:05;4.97;;;4.50;;
22111;SDS011;11222;50.872;4.312;2023-07-20T12:57:33;5.05;;;4.57;;
22111;SDS011;11222;50.872;4.312;2023-07-20T13:00:02;5.07;;;4.30;;
22111;SDS011;11222;50.872;4.312;2023-07-20T13:02:35;4.93;;;4.53;;
22111;SDS011;11222;50.872;4.312;2023-07-20T13:05:01;4.60;;;4.20;;
22111;SDS011;11222;50.872;4.312;2023-07-20T13:07:32;5.20;;;4.70;;
22111;SDS011;11222;50.872;4.312;2023-07-20T13:10:02;4.45;;;4.05;;
22111;SDS011;11222;50.872;4.312;2023-07-20T13:12:29;5.68;;;4.40;;
22111;SDS011;11222;50.872;4.312;2023-07-20T13:14:56;4.82;;;4.50;;
22111;SDS011;11222;50.872;4.312;2023-07-20T13:17:25;5.32;;;4.82;;
22111;SDS011;11222;50.872;4.312;2023-07-20T13:19:54;6.32;;;4.25;;
22111;SDS011;11222;50.872;4.312;2023-07-20T13:22:20;4.85;;;4.30;;
22111;SDS011;11222;50.872;4.312;2023-07-20T13:24:46;5.20;;;4.32;;
22111;SDS011;11222;50.872;4.312;2023-07-20T13:27:13;4.30;;;4.00;;
22111;SDS011;11222;50.872;4.312;2023-07-20T13:29:40;8.30;;;4.13;;
22111;SDS011;11222;50.872;4.312;2023-07-20T13:32:07;5.35;;;4.32;;
22111;SDS011;11222;50.872;4.312;2023-07-20T13:34:33;6.00;;;4.45;;
22111;SDS011;11222;50.872;4.312;2023-07-20T13:36:59;5.18;;;4.75;;
22111;SDS011;11222;50.872;4.312;2023-07-20T13:39:25;6.07;;;4.60;;
22111;SDS011;11222;50.872;4.312;2023-07-20T13:41:52;4.95;;;4.43;;
22111;SDS011;11222;50.872;4.312;2023-07-20T13:44:19;4.82;;;4.30;;
22111;SDS011;11222;50.872;4.312;2023-07-20T13:46:45;5.22;;;4.80;;
22111;SDS011;11222;50.872;4.312;2023-07-20T13:49:11;6.53;;;4.90;;
22111;SDS011;11222;50.872;4.312;2023-07-20T13:51:37;6.90;;;5.00;;
22111;SDS011;11222;50.872;4.312;2023-07-20T13:54:03;6.13;;;5.00;;
22111;SDS011;11222;50.872;4.312;2023-07-20T13:56:29;5.63;;;4.80;;
22111;SDS011;11222;50.872;4.312;2023-07-20T13:58:54;4.78;;;4.38;;
22111;SDS011;11222;50.872;4.312;2023-07-20T14:01:20;4.75;;;4.32;;
22111;SDS011;11222;50.872;4.312;2023-07-20T14:03:48;6.53;;;5.10;;
22111;SDS011;11222;50.872;4.312;2023-07-20T14:06:14;5.20;;;4.72;;
22111;SDS011;11222;50.872;4.312;2023-07-20T14:08:39;5.72;;;5.00;;
22111;SDS011;11222;50.872;4.312;2023-07-20T14:11:06;5.82;;;4.53;;
22111;SDS011;11222;50.872;4.312;2023-07-20T14:13:31;7.82;;;5.40;;
22111;SDS011;11222;50.872;4.312;2023-07-20T14:15:57;4.93;;;4.53;;
22111;SDS011;11222;50.872;4.312;2023-07-20T14:18:23;4.85;;;4.45;;
22111;SDS011;11222;50.872;4.312;2023-07-20T14:20:49;5.45;;;4.32;;
22111;SDS011;11222;50.872;4.312;2023-07-20T14:23:14;6.78;;;4.05;;
22111;SDS011;11222;50.872;4.312;2023-07-20T14:25:40;4.55;;;3.60;;
22111;SDS011;11222;50.872;4.312;2023-07-20T14:28:06;4.00;;;3.70;;
22111;SDS011;11222;50.872;4.312;2023-07-20T14:30:32;5.88;;;4.65;;
22111;SDS011;11222;50.872;4.312;2023-07-20T14:32:58;4.28;;;3.70;;
22111;SDS011;11222;50.872;4.312;2023-07-20T14:35:23;4.20;;;3.80;;
22111;SDS011;11222;50.872;4.312;2023-07-20T14:37:49;4.03;;;3.20;;
22111;SDS011;11222;50.872;4.312;2023-07-20T14:40:15;4.80;;;3.58;;
22111;SDS011;11222;50.872;4.312;2023-07-20T14:42:41;3.30;;;3.10;;
22111;SDS011;11222;50.872;4.312;2023-07-20T14:45:06;4.25;;;3.80;;
22111;SDS011;11222;50.872;4.312;2023-07-20T14:47:33;4.07;;;3.70;;
22111;SDS011;11222;50.872;4.312;2023-07-20T14:50:00;4.03;;;3.70;;
22111;SDS011;11222;50.872;4.312;2023-07-20T14:52:27;4.38;;;3.47;;
22111;SDS011;11222;50.872;4.312;2023-07-20T14:54:53;5.40;;;3.53;;
22111;SDS011;11222;50.872;4.312;2023-07-20T14:57:19;6.03;;;3.65;;
22111;SDS011;11222;50.872;4.312;2023-07-20T14:59:48;3.70;;;3.40;;
22111;SDS011;11222;50.872;4.312;2023-07-20T15:02:13;4.32;;;3.70;;
22111;SDS011;11222;50.872;4.312;2023-07-20T15:04:46;4.00;;;3.70;;
22111;SDS011;11222;50.872;4.312;2023-07-20T15:07:18;4.35;;;3.90;;
22111;SDS011;11222;50.872;4.312;2023-07-20T15:09:45;5.38;;;3.80;;
22111;SDS011;11222;50.872;4.312;2023-07-20T15:12:10;4.60;;;4.15;;